CST,Max TemperatureF,Mean TemperatureF,Min TemperatureF,Max Dew PointF,MeanDew PointF,Min DewpointF,Max Humidity, Mean Humidity, Min Humidity, Max Sea Level PressureIn, Mean Sea Level PressureIn, Min Sea Level PressureIn, Max VisibilityMiles, Mean VisibilityMiles, Min VisibilityMiles, Max Wind SpeedMPH, Mean Wind SpeedMPH, Max Gust SpeedMPH,PrecipitationIn, CloudCover, Events, WindDirDegrees
2012-12-1,78,62,46,50,44,36,93,56,21,30.29,30.09,29.58,10,10,8,13,2,,0.00,1,,140
2012-12-2,80,63,46,46,41,30,87,52,21,30.29,30.13,29.84,10,9,8,9,1,,0.00,1,,285
2012-12-3,77,60,44,48,42,39,87,57,26,30.27,30.12,29.89,10,9,8,12,1,,0.00,3,,307
2012-12-4,80,62,44,46,37,23,87,48,13,30.30,30.14,29.90,10,9,6,7,1,,0.00,2,,302
2012-12-5,78,61,44,37,36,30,76,43,17,30.32,30.11,29.72,12,10,8,12,4,,0.00,1,,175
2012-12-6,77,59,41,45,36,25,87,49,14,30.22,30.06,29.83,10,9,6,9,2,,0.00,1,,248
2012-12-7,75,60,44,46,38,32,87,50,21,30.15,30.01,29.79,10,9,7,16,5,23,0.00,4,,255
2012-12-8,75,58,41,39,34,30,81,46,19,30.17,30.04,29.77,12,10,8,17,2,,0.00,4,,272
2012-12-9,75,58,42,43,37,32,87,49,21,30.22,30.07,29.86,12,9,7,12,2,,0.00,3,,269
2012-12-10,75,58,42,43,38,32,93,51,21,30.20,30.06,29.83,10,9,7,12,2,,0.00,4,,249
2012-12-11,75,64,53,48,44,39,72,53,27,30.18,30.03,29.77,10,9,6,16,2,,0.00,7,,244
2012-12-12,77,59,41,48,42,34,93,60,21,30.25,30.11,29.88,10,8,5,10,2,,0.00,5,,178
2012-12-13,75,64,53,50,45,32,77,55,28,30.31,30.14,29.81,10,9,4,8,2,,0.00,6,,149
2012-12-14,77,60,44,48,45,41,93,60,32,30.31,30.15,29.92,20,10,8,12,3,,0.00,3,,304
2012-12-15,78,61,44,48,44,39,93,57,24,30.25,30.10,29.87,10,10,8,12,2,,0.00,3,,282
2012-12-16,80,62,44,48,41,30,93,53,16,30.22,30.06,29.79,10,10,7,14,3,,0.00,3,,272
2012-12-17,80,62,44,45,37,25,87,53,13,30.19,30.04,29.80,12,11,8,7,2,,0.00,3,,164
2012-12-18,78,58,39,52,39,28,87,53,22,30.21,30.05,29.82,10,10,8,9,3,,0.00,1,,180
2012-12-19,78,62,46,54,46,37,100,63,24,30.20,30.07,29.82,10,7,0,14,2,,0.00,1,Fog,267
2012-12-20,78,61,44,50,42,30,100,58,17,30.25,30.10,29.87,10,8,4,6,1,,0.00,2,,156
2012-12-21,73,62,50,43,38,34,71,47,25,30.37,30.19,29.93,10,9,6,16,6,,0.00,1,,70
2012-12-22,77,59,41,41,36,32,87,52,19,30.34,30.18,29.97,10,8,7,8,1,,0.00,2,,226
2012-12-23,80,60,41,43,38,32,87,52,17,30.27,30.12,29.88,10,9,7,10,2,,0.00,1,,301
2012-12-24,80,60,41,41,34,25,93,46,13,30.19,30.05,29.80,12,10,8,14,2,,0.00,2,,258
2012-12-25,75,58,41,48,33,16,81,46,11,30.17,30.02,29.80,12,9,8,9,2,,0.00,3,,279
2012-12-26,77,57,37,41,36,32,81,48,24,30.15,30.02,29.78,10,9,6,9,2,,0.00,5,,298
2012-12-27,77,60,44,46,39,32,87,52,19,30.14,30.02,29.78,10,9,7,16,3,,0.00,5,,257
2012-12-28,77,57,37,46,34,21,93,50,13,30.16,30.03,29.81,10,9,7,10,2,,0.00,3,,262
2012-12-29,80,60,41,41,32,21,76,42,12,30.24,30.08,29.89,10,9,8,10,2,,0.00,2,,138
2012-12-30,77,60,42,46,39,34,72,49,28,30.29,30.14,29.91,10,10,8,15,2,,0.00,3,,196
2012-12-31,66,60,53,57,53,48,100,81,60,30.25,30.15,29.93,10,7,2,8,2,,6.15,7,Rain,285